Last 48 Hours

Top Stn/Summit

15 Minute Data | America/Los_Angeles
as of 12/1/22 10:29 PM PST
Date & Time Temp (°F) WindChill (°F) RH (%) Dew Pt (°F) Wet Bulb (°F) Wind Dir (°) Wind Spd (mph) Wind Gust (mph) Wind Gst Dir (°) Daily Min Temp (°F) Daily Max Temp (°F) Daily Max Wind (mph)
12/1/22 - 2215 14.6 -9.8 92 12.6 14.1 SSW | 211 46.8 73.2 SW | 214 12.1 15.7 85.0
12/1/22 - 2200 15.2 -9.6 92 13.4 14.8 SW | 221 50.5 77.6 WSW | 241 12.1 15.7 85.0
12/1/22 - 2145 15.5 -9.4 92 13.7 15.1 SW | 224 52.0 83.2 SSW | 213 12.1 15.7 85.0
12/1/22 - 2130 15.6 -10.0 92 13.8 15.2 SW | 219 56.4 82.5 SSW | 207 12.1 15.7 85.0
12/1/22 - 2115 15.7 -9.3 93 13.9 15.2 SW | 219 52.8 85.0 WSW | 244 12.1 15.7 85.0
12/1/22 - 2100 15.6 -8.3 93 13.8 15.1 SW | 223 46.1 64.4 SW | 231 12.1 15.7 84.9
12/1/22 - 2045 15.5 -9.1 93 13.7 15.0 SW | 224 49.9 66.5 SW | 220 12.1 15.6 84.9
12/1/22 - 2030 15.3 -10.1 93 13.6 14.9 SW | 227 54.4 69.6 SSW | 201 12.1 15.6 84.9
12/1/22 - 2015 15.2 -10.3 93 13.5 14.8 SW | 225 55.4 68.5 WSW | 243 12.1 15.6 84.9
12/1/22 - 2000 15.0 -11.6 92 13.2 14.6 SW | 224 61.1 84.9 SW | 216 12.1 15.6 84.9
12/1/22 - 1945 14.9 -10.9 92 13.1 14.5 SW | 223 55.6 72.5 SW | 226 12.1 15.6 72.5
12/1/22 - 1930 14.7 -10.4 92 12.8 14.3 SW | 227 50.6 62.3 SW | 221 12.1 15.6 68.5
12/1/22 - 1915 14.5 -10.8 92 12.6 14.1 SW | 224 51.4 66.0 WSW | 239 12.1 15.6 68.5
12/1/22 - 1900 14.4 -10.7 92 12.5 14.0 SW | 225 50.5 64.6 SW | 232 12.1 15.6 68.5
12/1/22 - 1845 14.4 -11.0 92 12.5 14.0 SW | 226 52.5 62.6 SW | 223 12.1 15.6 68.5
12/1/22 - 1830 14.4 -11.2 92 12.6 14.0 SW | 228 53.5 66.3 WSW | 238 12.1 15.6 68.5
12/1/22 - 1815 14.4 -11.2 92 12.5 14.0 SW | 228 53.0 64.0 WSW | 242 12.1 15.6 68.5
12/1/22 - 1800 14.3 -10.8 92 12.4 13.9 SW | 227 50.3 59.2 SW | 233 12.1 15.6 68.5
12/1/22 - 1745 14.4 -11.0 92 12.5 14.0 SW | 227 51.8 64.4 SW | 223 12.1 15.6 68.5
12/1/22 - 1730 14.4 -10.7 92 12.5 14.0 SW | 230 50.4 62.2 WSW | 239 12.1 15.6 68.5
12/1/22 - 1715 14.6 -10.6 92 12.7 14.2 SW | 227 51.2 62.8 SW | 214 12.1 15.6 68.5
12/1/22 - 1700 14.6 -10.6 92 12.7 14.2 SW | 229 51.6 63.7 SW | 233 12.1 15.6 68.5
12/1/22 - 1645 14.7 -9.5 92 12.9 14.3 SW | 229 46.5 60.4 SW | 226 12.1 15.6 68.5
12/1/22 - 1630 14.7 -10.0 92 12.8 14.3 SW | 226 49.0 63.5 S | 190 12.1 15.6 68.5
12/1/22 - 1615 14.7 -10.3 92 12.8 14.3 SW | 228 50.9 62.7 SW | 231 12.1 15.6 68.5
12/1/22 - 1600 14.8 -9.6 92 12.9 14.4 SW | 224 46.9 56.6 WSW | 240 12.1 15.6 68.5
12/1/22 - 1545 14.8 -10.0 92 12.9 14.3 SW | 221 49.2 58.3 SSW | 202 12.1 15.6 68.5
12/1/22 - 1530 14.9 -9.9 92 13.0 14.4 SW | 220 49.6 58.5 SW | 218 12.1 15.6 68.5
12/1/22 - 1515 15.0 -9.7 92 13.1 14.6 SW | 221 49.3 60.0 SW | 236 12.1 15.6 68.5
12/1/22 - 1500 15.0 -10.0 92 13.1 14.6 SW | 224 51.2 62.0 S | 191 12.1 15.6 68.5
12/1/22 - 1445 15.0 -10.1 92 13.2 14.6 SW | 222 51.9 66.3 WSW | 238 12.1 15.6 68.5
12/1/22 - 1430 15.0 -9.7 92 13.1 14.5 SW | 215 49.3 62.4 WSW | 237 12.1 15.6 68.5
12/1/22 - 1415 15.0 -9.8 92 13.1 14.5 SW | 217 50.0 63.4 WSW | 239 12.1 15.6 68.5
12/1/22 - 1400 15.1 -9.5 92 13.2 14.7 SW | 222 49.0 59.3 SW | 217 12.1 15.6 68.5
12/1/22 - 1345 15.2 -9.5 92 13.3 14.7 SW | 220 49.9 59.2 WSW | 239 12.1 15.6 68.5
12/1/22 - 1330 15.2 -9.7 92 13.4 14.8 SW | 217 51.3 63.8 SSE | 162 12.1 15.6 68.5
12/1/22 - 1315 15.2 -9.7 92 13.4 14.8 SW | 223 51.7 64.9 SW | 223 12.1 15.6 68.5
12/1/22 - 1300 15.2 -9.1 92 13.4 14.8 SW | 225 48.1 62.5 SSW | 202 12.1 15.6 68.5
12/1/22 - 1245 15.3 -9.8 92 13.4 14.9 SW | 221 52.3 64.4 SW | 229 12.1 15.6 68.5
12/1/22 - 1230 15.5 -8.8 92 13.6 15.0 SW | 221 48.0 57.8 WSW | 241 12.1 15.6 68.5
12/1/22 - 1215 15.5 -7.8 92 13.7 15.0 SW | 225 42.9 51.2 WSW | 246 12.1 15.6 68.5
12/1/22 - 1200 15.5 -9.1 92 13.6 15.0 SSW | 209 49.8 58.7 SW | 223 12.1 15.6 68.5
12/1/22 - 1145 15.5 -9.9 92 13.6 15.0 SSW | 202 54.5 65.2 SSE | 152 12.1 15.5 68.5
12/1/22 - 1130 15.4 -10.1 92 13.6 15.0 SSW | 201 55.3 66.0 S | 183 12.1 15.5 68.5
12/1/22 - 1115 15.2 -9.9 92 13.4 14.8 SSW | 201 52.4 68.5 SSW | 199 12.1 15.4 68.5
12/1/22 - 1100 15.0 -9.2 92 13.2 14.6 SSW | 208 46.9 57.6 S | 188 12.1 15.1 67.1
12/1/22 - 1045 14.7 -9.5 92 12.8 14.3 SW | 214 46.4 53.7 SSW | 192 12.1 15.0 67.1
12/1/22 - 1030 14.6 -9.6 92 12.6 14.1 SW | 217 45.7 52.0 SSW | 210 12.1 14.8 67.1
12/1/22 - 1015 14.4 -10.1 92 12.5 14.0 SW | 224 46.7 54.6 SW | 214 12.1 14.8 67.1
12/1/22 - 1000 14.4 -10.1 92 12.5 14.0 SW | 224 47.2 56.8 SW | 230 12.1 14.8 67.1
12/1/22 - 0945 14.5 -10.0 92 12.6 14.1 SW | 225 47.1 57.0 SW | 231 12.1 14.8 67.1
12/1/22 - 0930 14.6 -10.5 92 12.7 14.2 SW | 222 51.1 59.1 SSW | 197 12.1 14.8 67.1
12/1/22 - 0915 14.4 -9.9 92 12.6 14.0 SW | 223 46.5 52.9 SSW | 210 12.1 14.6 67.1
12/1/22 - 0900 14.3 -10.6 92 12.4 13.9 SW | 214 48.7 57.6 SW | 233 12.1 14.4 67.1
12/1/22 - 0845 14.1 -10.7 92 12.2 13.7 SSW | 212 47.7 56.0 SSW | 204 12.1 14.3 67.1
12/1/22 - 0830 13.8 -11.3 92 11.9 13.4 SSW | 209 49.4 57.2 SW | 228 12.1 13.9 67.1
12/1/22 - 0815 13.8 -11.3 92 11.8 13.3 SW | 222 48.5 55.4 SSW | 209 12.1 13.8 67.1
12/1/22 - 0800 13.6 -11.3 92 11.6 13.2 SW | 225 47.4 58.4 SW | 221 12.1 13.7 67.1
12/1/22 - 0745 13.6 -11.3 92 11.6 13.2 SW | 228 47.5 60.0 WSW | 246 12.1 13.7 67.1
12/1/22 - 0730 13.5 -12.3 92 11.5 13.1 SW | 228 52.0 62.6 SW | 226 12.1 13.6 67.1
12/1/22 - 0715 13.4 -12.2 92 11.3 13.0 SW | 227 50.5 63.6 SW | 235 12.1 13.6 67.1
12/1/22 - 0700 13.2 -12.8 92 11.2 12.8 SW | 227 52.7 63.2 SW | 228 12.1 13.6 67.1
12/1/22 - 0645 13.1 -12.9 91 11.0 12.7 SW | 230 52.2 61.4 WSW | 238 12.1 13.6 67.1
12/1/22 - 0630 13.1 -12.7 91 11.0 12.7 SW | 235 51.1 59.6 WSW | 245 12.1 13.6 67.1
12/1/22 - 0615 12.9 -13.0 91 10.9 12.5 SW | 235 51.8 59.9 WSW | 237 12.1 13.6 67.1
12/1/22 - 0600 12.4 -13.6 91 10.4 12.1 SW | 223 50.7 58.0 WSW | 241 12.1 13.6 67.1
12/1/22 - 0545 12.3 -13.6 91 10.2 12.0 SW | 224 50.2 56.9 WSW | 240 12.1 13.6 67.1
12/1/22 - 0530 12.6 -12.4 91 10.5 12.2 SW | 221 45.4 52.3 SSW | 203 12.1 13.6 67.1
12/1/22 - 0515 12.8 -11.6 91 10.7 12.4 SW | 216 43.0 50.1 SW | 219 12.1 13.6 67.1
12/1/22 - 0500 12.9 -11.2 91 10.8 12.5 SW | 222 41.7 49.6 SW | 224 12.1 13.6 67.1
12/1/22 - 0445 13.0 -11.6 91 10.9 12.6 SW | 222 44.2 50.8 SW | 236 12.1 13.6 67.1
12/1/22 - 0430 12.9 -12.0 91 10.8 12.5 SW | 219 46.2 53.9 SW | 236 12.1 13.6 67.1
12/1/22 - 0415 12.8 -11.8 91 10.7 12.4 SW | 224 44.3 54.9 WSW | 247 12.1 13.6 67.1
12/1/22 - 0400 12.8 -12.0 91 10.7 12.4 SW | 223 45.4 52.5 WSW | 237 12.1 13.6 67.1
12/1/22 - 0345 12.8 -12.3 91 10.6 12.4 SW | 225 46.3 57.6 SW | 236 12.1 13.6 67.1
12/1/22 - 0330 12.9 -12.1 91 10.8 12.5 SW | 223 46.3 55.2 SSW | 213 12.1 13.6 67.1
12/1/22 - 0315 12.9 -12.2 91 10.8 12.5 SW | 221 46.9 55.0 SW | 227 12.1 13.6 67.1
12/1/22 - 0300 12.8 -12.5 91 10.7 12.4 SW | 225 47.9 56.2 SW | 226 12.1 13.6 67.1
12/1/22 - 0245 12.6 -13.4 91 10.5 12.2 SW | 225 50.7 56.4 SW | 224 12.1 13.6 67.1
12/1/22 - 0230 12.2 -13.8 91 10.0 11.8 SW | 226 50.2 55.3 SSW | 206 12.1 13.6 67.1
12/1/22 - 0215 12.4 -13.5 91 10.2 12.0 SW | 226 49.8 56.2 WSW | 239 12.1 13.6 67.1
12/1/22 - 0200 12.3 -13.9 91 10.1 11.9 SW | 227 51.3 59.6 WSW | 240 12.1 13.6 67.1
12/1/22 - 0145 12.3 -13.9 91 10.1 11.9 SW | 230 51.4 59.0 WSW | 247 12.2 13.6 67.1
12/1/22 - 0130 12.4 -14.1 91 10.2 12.0 SW | 229 53.1 59.0 WSW | 243 12.2 13.6 67.1
12/1/22 - 0115 12.7 -14.1 91 10.6 12.3 SW | 225 55.8 62.2 SW | 230 12.5 13.6 67.1
12/1/22 - 0100 13.0 -13.8 91 10.9 12.6 SW | 226 56.8 62.9 SW | 226 13.0 13.6 67.1
12/1/22 - 0045 13.1 -13.6 91 11.0 12.7 SW | 226 55.8 63.5 WSW | 239 13.0 13.6 67.1
12/1/22 - 0030 13.2 -13.4 91 11.2 12.8 SW | 228 56.5 63.3 SW | 226 13.1 13.6 67.1
12/1/22 - 0015 13.4 -13.5 91 11.4 13.0 SW | 231 58.6 67.1 SW | 215 13.3 13.6 67.1
12/1/22 - 0000 13.6 -13.3 91 11.5 13.2 SW | 229 59.1 66.6 WSW | 237 13.1 20.0 74.2
11/30/22 - 2345 13.6 -14.1 91 11.6 13.2 SW | 229 64.2 74.2 SW | 230 13.1 20.0 74.2
11/30/22 - 2330 13.7 -13.8 91 11.6 13.3 SW | 224 63.4 71.0 SW | 234 13.1 20.0 71.0
11/30/22 - 2315 13.7 -13.4 91 11.7 13.3 SW | 226 61.0 67.6 WSW | 239 13.1 20.0 68.9
11/30/22 - 2300 13.8 -13.2 91 11.8 13.4 SW | 227 60.4 68.2 SSW | 213 13.1 20.0 68.9
11/30/22 - 2245 13.8 -13.1 91 11.8 13.4 SW | 230 59.9 66.0 SW | 226 13.1 20.0 68.9
11/30/22 - 2230 13.8 -13.2 91 11.8 13.4 SW | 227 60.7 68.9 SW | 226 13.1 20.0 68.9
11/30/22 - 2215 13.8 -12.6 91 11.8 13.4 SW | 229 56.8 64.1 SW | 222 13.1 20.0 64.1
11/30/22 - 2200 13.9 -12.3 91 11.9 13.5 SW | 228 55.4 62.6 WSW | 247 13.1 20.0 63.6
11/30/22 - 2145 13.9 -12.1 91 11.8 13.4 SW | 225 54.0 61.3 WSW | 243 13.1 20.0 63.6
11/30/22 - 2130 13.7 -12.1 91 11.6 13.2 SW | 228 52.4 59.7 SW | 230 13.1 20.0 63.6
11/30/22 - 2115 13.5 -12.9 91 11.4 13.1 SW | 224 55.7 62.7 WSW | 241 13.1 20.0 63.6
11/30/22 - 2100 13.5 -12.7 91 11.4 13.0 SW | 223 54.5 61.1 WSW | 238 13.1 20.0 63.6
11/30/22 - 2045 13.4 -12.6 91 11.3 13.0 SW | 216 53.5 59.9 WSW | 243 13.1 20.0 63.6
11/30/22 - 2030 13.5 -12.8 91 11.4 13.1 SW | 222 55.1 61.0 WSW | 246 13.1 20.0 63.6
11/30/22 - 2015 13.5 -13.0 91 11.4 13.1 SW | 221 56.5 60.9 WSW | 237 13.1 20.0 63.6
11/30/22 - 2000 13.5 -12.6 91 11.4 13.1 SW | 227 54.0 61.5 SW | 234 13.1 20.0 63.6
11/30/22 - 1945 13.4 -12.5 91 11.4 13.0 SW | 231 53.0 59.8 SW | 231 13.1 20.0 63.6
11/30/22 - 1930 13.2 -13.2 91 11.0 12.8 SW | 224 54.6 63.6 SW | 236 13.1 20.0 63.6
11/30/22 - 1915 13.4 -12.5 91 11.4 13.0 SW | 216 53.1 61.7 WSW | 237 13.3 20.0 61.7
11/30/22 - 1900 13.5 -12.4 92 11.5 13.1 SW | 222 52.2 59.9 SW | 232 13.3 20.0 59.9
11/30/22 - 1845 13.4 -12.1 92 11.5 13.1 SW | 214 50.7 56.7 WSW | 242 13.3 20.0 56.7
11/30/22 - 1830 13.6 -11.4 91 11.5 13.2 SW | 215 48.0 53.5 SSW | 213 13.3 20.0 55.2
11/30/22 - 1815 14.1 -10.4 91 12.0 13.7 SW | 219 46.8 53.2 SSW | 194 13.8 20.0 55.2
11/30/22 - 1800 14.5 -9.6 91 12.5 14.1 SW | 222 45.2 52.0 WSW | 246 14.3 20.0 55.2
11/30/22 - 1745 14.8 -9.2 84 11.0 13.9 SW | 226 45.4 55.2 WSW | 242 14.6 20.0 55.2
11/30/22 - 1730 15.1 -8.2 80 10.1 14.0 SW | 226 42.1 50.8 SW | 229 15.0 20.0 53.6
11/30/22 - 1715 15.8 -6.8 76 9.4 14.3 SW | 224 39.9 45.1 SW | 228 15.0 20.0 53.6
11/30/22 - 1700 16.4 -5.6 72 9.0 14.7 SW | 224 38.6 47.8 WSW | 242 15.0 20.0 53.6
11/30/22 - 1645 16.9 -5.0 70 8.8 15.0 SW | 222 39.0 45.5 SSW | 209 15.0 20.0 53.6
11/30/22 - 1630 17.5 -4.2 65 7.8 15.2 SW | 226 38.7 48.3 SW | 234 15.0 20.0 53.6
11/30/22 - 1615 17.8 -3.2 65 8.0 15.5 SW | 227 36.5 44.0 SSW | 198 15.0 20.0 53.6
11/30/22 - 1600 17.6 -3.3 66 8.4 15.4 SW | 226 35.6 41.5 SW | 224 15.0 20.0 53.6
11/30/22 - 1545 17.4 -3.3 69 8.9 15.4 SW | 226 34.2 41.6 SSW | 196 15.0 20.0 53.6
11/30/22 - 1530 17.5 -3.2 70 9.2 15.5 SW | 228 34.2 40.6 SW | 217 15.0 20.0 53.6
11/30/22 - 1515 17.6 -3.0 69 9.2 15.6 SW | 228 34.1 40.3 SW | 233 15.0 20.0 53.6
11/30/22 - 1500 17.7 -3.5 67 8.6 15.5 SW | 228 37.1 44.5 W | 264 15.0 20.0 53.6
11/30/22 - 1445 17.9 -3.3 65 8.2 15.6 SW | 233 37.6 46.2 SW | 223 15.0 20.0 53.6
11/30/22 - 1430 17.9 -3.9 64 7.7 15.5 SW | 229 40.2 48.4 SSW | 209 15.0 20.0 53.6
11/30/22 - 1415 17.8 -4.4 63 7.3 15.4 SW | 234 42.5 53.3 WSW | 239 15.0 20.0 53.6
11/30/22 - 1400 18.5 -3.9 58 6.0 15.6 SW | 228 44.5 53.5 WSW | 248 15.0 20.0 53.6
11/30/22 - 1345 19.1 -3.0 50 3.7 15.7 SW | 223 44.2 51.1 WSW | 242 15.0 20.0 53.6
11/30/22 - 1330 19.3 -2.3 48 2.7 15.7 SW | 231 42.2 53.6 WSW | 241 15.0 20.0 53.6
11/30/22 - 1315 19.4 -2.3 46 1.8 15.6 SW | 228 43.1 50.1 SW | 216 15.0 20.0 50.1
11/30/22 - 1300 19.3 -1.9 44 1.1 15.5 SW | 233 40.6 49.0 SW | 222 15.0 20.0 49.0
11/30/22 - 1245 19.7 -1.3 42 0.2 15.6 SW | 230 39.7 46.6 WSW | 244 15.0 20.0 48.5
11/30/22 - 1230 19.5 -1.5 39 -1.5 15.3 SW | 229 39.8 46.1 WSW | 241 15.0 20.0 48.5
11/30/22 - 1215 19.5 -1.6 36 -3.0 15.1 SW | 226 39.7 46.6 WSW | 244 15.0 20.0 48.5
11/30/22 - 1200 19.5 -1.5 36 -3.2 15.1 SW | 228 39.2 44.4 SW | 236 15.0 20.0 48.5
11/30/22 - 1145 19.4 -1.3 35 -3.7 15.0 SW | 229 38.0 44.2 SSW | 198 15.0 20.0 48.5
11/30/22 - 1130 19.2 -1.3 35 -4.0 14.7 SW | 232 36.5 43.7 WSW | 257 15.0 20.0 48.5
11/30/22 - 1115 19.2 -1.4 34 -4.5 14.7 SW | 229 37.3 43.3 WSW | 238 15.0 20.0 48.5
11/30/22 - 1100 19.4 -1.0 33 -5.0 14.8 SW | 228 36.8 43.3 WSW | 241 15.0 20.0 48.5
11/30/22 - 1045 19.6 -0.9 32 -5.7 14.9 SW | 230 36.9 42.0 WSW | 249 15.0 20.0 48.5
11/30/22 - 1030 19.2 -1.6 31 -6.3 14.5 SW | 230 37.9 43.8 SW | 229 15.0 20.0 48.5
11/30/22 - 1015 18.7 -2.8 32 -6.1 14.2 SW | 231 40.3 45.3 SW | 232 15.0 20.0 48.5
11/30/22 - 1000 18.6 -3.3 32 -6.7 14.0 SW | 221 42.1 48.5 S | 181 15.0 20.0 48.5
11/30/22 - 0945 18.0 -3.6 33 -6.5 13.6 SW | 221 40.0 48.2 SSW | 205 15.0 20.0 48.2
11/30/22 - 0930 17.3 -3.7 36 -4.9 13.2 SW | 228 35.2 39.9 SW | 229 15.0 20.0 43.8
11/30/22 - 0915 16.6 -4.6 38 -4.6 12.8 SW | 228 35.6 40.6 WSW | 240 15.0 20.0 43.8
11/30/22 - 0900 16.4 -5.3 39 -4.1 12.7 SW | 231 37.6 41.2 SW | 225 15.0 20.0 43.8
11/30/22 - 0845 16.6 -4.8 39 -3.8 12.9 SW | 233 36.3 40.3 SW | 228 15.0 20.0 43.8
11/30/22 - 0830 16.4 -5.5 43 -2.4 12.8 SW | 232 38.1 41.2 WSW | 239 15.0 20.0 43.8
11/30/22 - 0815 16.1 -6.0 44 -2.0 12.7 SW | 231 38.7 41.3 SW | 226 15.0 20.0 43.8
11/30/22 - 0800 15.8 -6.6 47 -0.9 12.6 SW | 232 39.4 43.0 WSW | 249 15.0 20.0 43.8
11/30/22 - 0745 15.9 -6.2 49 0.2 12.8 SW | 232 37.6 42.1 WSW | 241 15.0 20.0 43.8
11/30/22 - 0730 15.4 -6.2 51 0.6 12.5 SW | 236 35.3 39.2 WSW | 247 15.0 20.0 43.8
11/30/22 - 0715 15.3 -6.2 52 0.7 12.4 SW | 236 34.2 37.6 WSW | 241 15.0 20.0 43.8
11/30/22 - 0700 15.2 -6.3 52 0.7 12.4 SW | 234 34.2 37.2 WSW | 238 15.0 20.0 43.8
11/30/22 - 0645 15.8 -4.6 49 0.1 12.8 WSW | 237 31.0 36.0 WSW | 242 15.3 20.0 43.8
11/30/22 - 0630 16.0 -4.0 47 -0.9 12.7 WSW | 237 29.5 33.6 WSW | 251 15.7 20.0 43.8
11/30/22 - 0615 16.2 -3.7 45 -1.4 12.8 WSW | 239 29.3 34.3 SW | 225 15.9 20.0 43.8
11/30/22 - 0600 16.5 -2.9 43 -2.0 13.0 WSW | 238 27.9 33.0 WSW | 252 15.9 20.0 43.8
11/30/22 - 0545 16.2 -3.6 45 -1.3 12.8 WSW | 239 28.8 34.2 SW | 225 15.9 20.0 43.8
11/30/22 - 0530 16.4 -2.6 44 -1.5 12.9 WSW | 241 26.3 30.6 SW | 225 16.0 20.0 43.8
11/30/22 - 0515 16.3 -2.0 46 -1.1 13.0 WSW | 240 24.1 27.8 SW | 232 16.0 20.0 43.8
11/30/22 - 0500 16.9 -1.4 43 -1.7 13.3 WSW | 237 24.7 28.1 SW | 234 16.5 20.0 43.8
11/30/22 - 0445 17.2 -1.4 41 -2.7 13.4 WSW | 240 26.1 32.5 SW | 226 16.9 20.0 43.8
11/30/22 - 0430 17.2 -1.1 41 -2.4 13.5 WSW | 237 25.2 29.3 SW | 227 16.9 20.0 43.8
11/30/22 - 0415 17.4 -1.9 40 -2.9 13.6 SW | 233 28.7 34.9 SW | 223 16.9 20.0 43.8
11/30/22 - 0400 17.3 -3.1 39 -3.6 13.4 SW | 229 32.8 35.4 SW | 234 16.9 20.0 43.8
11/30/22 - 0345 17.5 -2.9 37 -4.2 13.5 SW | 232 33.1 36.1 WSW | 242 17.2 20.0 43.8
11/30/22 - 0330 18.2 -1.5 34 -5.2 13.9 WSW | 238 31.1 34.1 WSW | 241 17.8 20.0 43.8
11/30/22 - 0315 18.0 -2.2 35 -5.0 13.8 WSW | 239 33.4 38.0 WSW | 238 17.8 20.0 43.8
11/30/22 - 0300 18.5 -2.1 39 -2.4 14.4 SW | 232 35.8 39.0 WSW | 244 17.9 20.0 43.8
11/30/22 - 0245 19.0 -1.0 39 -1.7 14.9 SW | 228 33.8 35.5 WSW | 243 18.8 20.0 43.8
11/30/22 - 0230 19.2 -0.2 40 -1.1 15.2 SW | 230 31.8 34.0 SW | 236 19.0 20.0 43.8
11/30/22 - 0215 19.2 -0.2 40 -1.0 15.1 SW | 227 31.7 33.7 SW | 232 19.0 20.0 43.8
11/30/22 - 0200 19.4 -0.0 40 -1.0 15.3 SW | 231 32.1 34.0 WSW | 237 19.0 20.0 43.8
11/30/22 - 0145 19.4 -0.4 40 -1.0 15.3 SW | 233 34.1 38.7 WSW | 238 19.0 20.0 43.8
11/30/22 - 0130 19.3 -1.1 40 -1.0 15.2 SW | 229 36.5 40.0 SW | 228 19.0 20.0 43.8
11/30/22 - 0115 19.2 -1.5 40 -1.5 15.0 SW | 232 37.0 40.2 SW | 225 19.0 20.0 43.8
11/30/22 - 0100 19.4 -1.3 39 -1.5 15.2 SW | 236 38.3 41.1 WSW | 246 19.0 20.0 43.8
11/30/22 - 0045 19.7 -1.2 39 -1.2 15.5 SW | 234 39.1 41.2 SW | 229 19.1 20.0 43.8
11/30/22 - 0030 19.5 -1.5 39 -1.4 15.3 SW | 234 39.9 43.8 WSW | 239 19.1 20.0 43.8
11/30/22 - 0015 19.8 -0.7 38 -1.9 15.4 WSW | 237 37.3 41.5 SW | 236 19.6 20.0 41.5
11/30/22 - 0000 20.0 0.0 37 -1.9 15.6 WSW | 240 35.6 39.4 WSW | 241 7.6 29.0 44.4
11/29/22 - 2345 19.8 -0.2 38 -1.6 15.5 WSW | 239 35.1 39.0 WSW | 241 7.6 29.0 44.4
11/29/22 - 2330 20.4 1.0 37 -1.7 15.9 WSW | 238 33.7 38.6 WSW | 243 7.6 29.0 44.4
11/29/22 - 2315 20.9 2.3 36 -1.9 16.3 WSW | 237 31.0 33.8 SW | 232 7.6 29.0 44.4
11/29/22 - 2300 21.2 3.2 36 -1.5 16.6 SW | 233 29.0 31.7 SW | 236 7.6 29.0 44.4
11/29/22 - 2245 21.3 3.7 36 -1.3 16.6 SW | 223 27.7 30.4 SW | 234 7.6 29.0 44.4
11/29/22 - 2230 21.5 4.5 36 -1.4 16.8 SSW | 213 25.6 28.1 SW | 231 7.6 29.0 44.4
11/29/22 - 2215 22.1 6.4 35 -1.1 17.3 SW | 217 22.0 24.7 S | 191 7.6 29.0 44.4
Max 22.1 6.4 93 13.9 17.3 - 64.2 85.0 - 19.6 29.0 85.0
Avg 15.7 -7.7 73 7.2 14.0 - 44.8 53.0 - - - -
Min 12.2 -14.1 31 -6.7 11.8 - 22.0 24.7 - 7.6 13.6 41.5